createdAt,value
2022-09-03T00:04:50.223Z,14.79
2022-09-03T00:10:00.094Z,14.71
2022-09-03T00:15:06.552Z,14.68
2022-09-03T00:20:22.179Z,14.50
2022-09-03T00:25:37.592Z,14.80
2022-09-03T00:30:41.389Z,14.39
2022-09-03T00:35:51.987Z,14.29
2022-09-03T00:41:06.452Z,14.53
2022-09-03T00:46:13.785Z,14.23
2022-09-03T00:51:22.705Z,14.05
2022-09-03T00:56:55.605Z,14.17
2022-09-03T01:02:26.455Z,14.30
2022-09-03T01:07:27.940Z,14.35
2022-09-03T01:12:44.587Z,14.33
2022-09-03T01:18:06.996Z,14.25
2022-09-03T01:23:11.165Z,14.30
2022-09-03T01:28:21.860Z,14.31
2022-09-03T01:33:35.205Z,14.32
2022-09-03T01:38:52.673Z,14.00
2022-09-03T01:44:31.384Z,14.12
2022-09-03T01:49:47.137Z,14.33
2022-09-03T01:54:52.553Z,14.29
2022-09-03T02:00:05.397Z,14.26
2022-09-03T02:05:14.051Z,14.38
2022-09-03T02:10:19.491Z,14.48
2022-09-03T02:15:24.799Z,14.57
2022-09-03T02:20:29.383Z,14.53
2022-09-03T02:25:38.011Z,14.58
2022-09-03T02:30:39.499Z,14.72
2022-09-03T02:35:42.906Z,14.79
2022-09-03T02:40:44.682Z,14.65
2022-09-03T02:45:51.410Z,14.72
2022-09-03T02:50:52.938Z,14.89
2022-09-03T02:56:01.620Z,14.86
2022-09-03T03:01:03.192Z,14.93
2022-09-03T03:06:05.662Z,14.61
2022-09-03T03:11:07.209Z,14.70
2022-09-03T03:16:08.729Z,14.91
2022-09-03T03:21:12.838Z,14.64
2022-09-03T03:26:17.738Z,14.99
2022-09-03T03:31:21.204Z,14.77
2022-09-03T03:36:24.815Z,14.83
2022-09-03T03:41:29.543Z,14.96
2022-09-03T03:46:33.589Z,14.94
2022-09-03T03:51:36.187Z,14.97
2022-09-03T03:56:37.746Z,14.78
2022-09-03T04:01:39.215Z,14.91
2022-09-03T04:06:40.803Z,14.85
2022-09-03T04:11:42.372Z,14.81
2022-09-03T04:16:44.323Z,14.83
2022-09-03T04:21:46.121Z,15.07
2022-09-03T04:26:47.594Z,14.75
2022-09-03T04:31:49.038Z,14.95
2022-09-03T04:36:52.972Z,14.97
2022-09-03T04:41:54.513Z,14.84
2022-09-03T04:46:56.038Z,15.07
2022-09-03T04:51:57.475Z,14.91
2022-09-03T04:56:58.905Z,14.97
2022-09-03T05:02:00.405Z,15.16
2022-09-03T05:07:02.028Z,15.08
2022-09-03T05:12:03.845Z,14.95
2022-09-03T05:17:05.918Z,15.01
2022-09-03T05:22:07.374Z,15.04
2022-09-03T05:27:08.806Z,15.13
2022-09-03T05:32:10.878Z,15.07
2022-09-03T05:37:12.304Z,15.29
2022-09-03T05:42:13.730Z,15.24
2022-09-03T05:47:15.914Z,15.44
2022-09-03T05:52:17.356Z,15.31
2022-09-03T05:57:18.809Z,15.30
2022-09-03T06:02:20.489Z,15.37
2022-09-03T06:07:22.007Z,15.35
2022-09-03T06:12:23.490Z,15.35
2022-09-03T06:17:24.925Z,15.78
2022-09-03T06:22:26.423Z,16.22
2022-09-03T06:27:29.032Z,16.54
2022-09-03T06:32:30.987Z,16.72
2022-09-03T06:37:32.463Z,16.90
2022-09-03T06:42:34.006Z,17.04
2022-09-03T06:47:36.036Z,17.42
2022-09-03T06:52:37.459Z,17.51
2022-09-03T06:57:38.923Z,17.76
2022-09-03T07:02:44.284Z,17.91
2022-09-03T07:07:46.571Z,18.07
2022-09-03T07:12:48.059Z,18.07
2022-09-03T07:17:50.114Z,18.68
2022-09-03T07:22:55.468Z,20.52
2022-09-03T07:27:56.982Z,18.40
2022-09-03T07:32:58.712Z,18.09
2022-09-03T07:38:00.395Z,18.05
2022-09-03T07:43:01.848Z,18.18
2022-09-03T07:48:03.490Z,18.17
2022-09-03T07:53:04.947Z,18.69
2022-09-03T07:58:06.443Z,18.68
2022-09-03T08:03:09.575Z,18.88
2022-09-03T08:08:11.011Z,18.79
2022-09-03T08:13:16.950Z,18.82
2022-09-03T08:18:18.467Z,18.55
2022-09-03T08:23:20.254Z,18.82
2022-09-03T08:28:21.738Z,18.66
2022-09-03T08:33:23.258Z,18.71
2022-09-03T08:38:26.468Z,18.91
2022-09-03T08:43:28.646Z,18.94
2022-09-03T08:48:32.046Z,18.87
2022-09-03T08:53:45.484Z,19.01
2022-09-03T08:58:46.974Z,18.75
2022-09-03T09:04:13.376Z,18.62
2022-09-03T09:09:45.655Z,18.63
2022-09-03T09:15:03.369Z,18.97
2022-09-03T09:20:09.579Z,19.24
2022-09-03T09:25:15.197Z,19.16
2022-09-03T09:30:17.181Z,18.89
2022-09-03T09:35:19.581Z,19.04
2022-09-03T09:40:30.401Z,19.07
2022-09-03T09:45:31.931Z,19.39
2022-09-03T09:50:33.487Z,19.40
2022-09-03T09:55:34.935Z,19.46
2022-09-03T10:00:36.375Z,19.60
2022-09-03T10:05:37.919Z,19.70
2022-09-03T10:10:46.740Z,19.93
2022-09-03T10:16:14.748Z,20.82
2022-09-03T10:21:27.221Z,20.79
2022-09-03T10:26:29.159Z,21.85
2022-09-03T10:31:42.444Z,21.39
2022-09-03T10:37:09.705Z,21.33
2022-09-03T10:42:35.413Z,22.23
2022-09-03T10:47:54.416Z,22.71
2022-09-03T10:53:21.106Z,22.56
2022-09-03T10:58:44.995Z,22.09
2022-09-03T11:03:52.852Z,21.95
2022-09-03T11:09:30.178Z,22.86
2022-09-03T11:14:40.745Z,22.72
2022-09-03T11:20:16.469Z,21.78
2022-09-03T11:25:22.023Z,21.28
2022-09-03T11:30:29.033Z,21.35
2022-09-03T11:35:33.578Z,22.10
2022-09-03T11:40:40.288Z,22.19
2022-09-03T11:45:41.838Z,21.88
2022-09-03T11:50:53.163Z,21.81
2022-09-03T11:56:16.514Z,21.76
2022-09-03T12:01:18.286Z,22.09
2022-09-03T12:06:28.408Z,22.21
2022-09-03T12:11:47.727Z,22.16
2022-09-03T12:17:32.107Z,22.18
2022-09-03T12:22:36.689Z,22.64
2022-09-03T12:27:38.217Z,22.53
2022-09-03T12:32:39.672Z,22.59
2022-09-03T12:48:40.467Z,22.46
2022-09-03T12:53:45.702Z,22.33
2022-09-03T12:58:59.383Z,22.25
2022-09-03T13:04:07.201Z,22.25
2022-09-03T13:09:14.289Z,22.39
2022-09-03T13:14:16.401Z,22.23
2022-09-03T13:19:36.026Z,22.12
2022-09-03T13:24:51.924Z,22.15
2022-09-03T13:30:20.826Z,21.90
2022-09-03T13:35:27.139Z,21.85
2022-09-03T13:40:43.274Z,22.00
2022-09-03T13:45:53.143Z,22.23
2022-09-03T13:51:01.607Z,22.55
2022-09-03T13:56:16.331Z,22.82
2022-09-03T14:01:37.039Z,22.76
2022-09-03T14:06:49.494Z,22.70
2022-09-03T14:11:57.454Z,22.69
2022-09-03T14:17:15.041Z,22.63
2022-09-03T14:22:22.895Z,22.41
2022-09-03T14:27:26.531Z,22.22
2022-09-03T14:32:42.569Z,22.04
2022-09-03T14:38:06.167Z,21.89
2022-09-03T14:43:45.209Z,21.91
2022-09-03T14:49:11.469Z,21.90
2022-09-03T14:54:34.280Z,21.94
2022-09-03T15:00:03.060Z,21.98
2022-09-03T15:05:41.348Z,22.05
2022-09-03T15:10:47.801Z,22.06
2022-09-03T15:16:03.399Z,22.14
2022-09-03T15:21:40.118Z,22.11
2022-09-03T15:27:00.322Z,22.01
2022-09-03T15:32:22.686Z,22.06
2022-09-03T15:37:40.158Z,21.81
2022-09-03T15:42:42.442Z,21.83
2022-09-03T15:47:56.414Z,21.74
2022-09-03T15:53:00.572Z,21.65
2022-09-03T15:58:11.725Z,21.65
2022-09-03T16:03:14.394Z,19.64
2022-09-03T16:08:32.602Z,19.43
2022-09-03T16:13:59.719Z,19.59
2022-09-03T16:19:09.411Z,19.72
2022-09-03T16:24:42.191Z,19.63
2022-09-03T16:30:36.023Z,19.63
2022-09-03T16:35:58.552Z,19.65
2022-09-03T16:41:35.571Z,19.59
2022-09-03T16:46:56.847Z,19.60
2022-09-03T16:52:16.598Z,19.51
2022-09-03T16:57:44.400Z,19.35
2022-09-03T17:03:10.863Z,19.17
2022-09-03T17:08:44.793Z,19.11
2022-09-03T17:13:51.981Z,19.35
2022-09-03T17:19:26.476Z,19.19
2022-09-03T17:24:41.782Z,19.37
2022-09-03T17:30:06.378Z,19.40
2022-09-03T17:35:13.879Z,18.94
2022-09-03T17:40:53.411Z,18.86
2022-09-03T17:46:08.050Z,18.90
2022-09-03T17:51:24.346Z,18.60
2022-09-03T17:56:34.162Z,18.63
2022-09-03T18:01:44.642Z,18.65
2022-09-03T18:06:46.123Z,18.55
2022-09-03T18:11:58.346Z,18.38
2022-09-03T18:17:38.411Z,18.05
2022-09-03T18:22:49.131Z,18.20
2022-09-03T18:27:57.492Z,17.86
2022-09-03T18:32:58.981Z,17.95
2022-09-03T18:38:03.565Z,18.00
2022-09-03T18:43:08.020Z,17.85
2022-09-03T18:48:35.610Z,17.79
2022-09-03T18:54:14.022Z,17.76
2022-09-03T19:05:18.887Z,17.59
2022-09-03T19:10:26.982Z,17.52
2022-09-03T19:15:38.973Z,17.38
2022-09-03T19:20:48.233Z,17.21
2022-09-03T19:25:54.193Z,17.26
2022-09-03T19:31:15.902Z,17.15
2022-09-03T19:48:10.927Z,17.15
2022-09-03T19:53:17.488Z,17.21
2022-09-03T19:58:42.069Z,16.98
2022-09-03T20:03:44.714Z,16.90
2022-09-03T20:08:47.780Z,16.70
2022-09-03T20:13:49.793Z,16.85
2022-09-03T20:19:11.437Z,16.73
2022-09-03T20:24:25.607Z,17.04
2022-09-03T20:29:48.340Z,17.10
2022-09-03T20:35:08.058Z,16.99
2022-09-03T20:40:28.995Z,16.93
2022-09-03T20:46:08.436Z,16.63
2022-09-03T20:51:14.509Z,16.57
2022-09-03T20:56:20.321Z,16.48
2022-09-03T21:01:45.186Z,16.17
2022-09-03T21:06:59.794Z,16.56
2022-09-03T21:12:16.173Z,16.24
2022-09-03T21:17:35.746Z,16.31
2022-09-03T21:22:52.641Z,16.08
2022-09-03T21:28:06.563Z,15.90
2022-09-03T21:33:19.755Z,15.78
2022-09-03T21:38:25.564Z,15.75
2022-09-03T21:43:32.986Z,15.63
2022-09-03T21:48:40.054Z,15.75
2022-09-03T21:53:48.316Z,15.67
2022-09-03T21:59:19.760Z,15.47
2022-09-03T22:04:21.343Z,15.61
2022-09-03T22:09:30.256Z,15.35
2022-09-03T22:14:38.288Z,15.51
2022-09-03T22:19:39.766Z,15.40
2022-09-03T22:24:45.281Z,15.21
2022-09-03T22:29:58.845Z,15.17
2022-09-03T22:35:17.847Z,15.19
2022-09-03T22:40:25.933Z,15.25
2022-09-03T22:45:51.891Z,15.19
2022-09-03T22:51:00.149Z,15.33
2022-09-03T22:56:09.417Z,15.18
2022-09-03T23:01:17.924Z,15.27
2022-09-03T23:06:43.826Z,15.35
2022-09-03T23:12:00.337Z,15.23
2022-09-03T23:17:13.042Z,15.10
2022-09-03T23:22:17.391Z,15.17
2022-09-03T23:27:23.897Z,15.14
2022-09-03T23:32:31.286Z,15.16
2022-09-03T23:37:56.768Z,14.99
2022-09-03T23:43:00.883Z,15.23
2022-09-03T23:48:24.866Z,15.16
2022-09-03T23:53:51.671Z,15.06
2022-09-03T23:59:27.423Z,15.11
